Pampa, Texas
Current Conditions -  °F | °C
As of 12:55 PM on Thursday 23 Oct 2014 (Local Time) from KPPA Reporting Station
Clear Clear  
Wind Chill: 73°   Ceiling: Unl
Heat Index: 73°   Visibility: 10mi
Dew Point: 59°   Wind: 7mph
Humidity: 62%   Direction: 130°SE
Pressure: 30.14"   Gusts: NA
Location:  35.53°N, 100.95°W
Report Text: KPPA 231755Z AUTO 13006KT 10SM CLR 23/15 A3014 RMK AO2 6//// T02250149 10225 20120 PNO
Loading
Personal Weather Stations






























Interactive Weather Map
Tropical Storm Tracking
New forecast layout! Learn more

10-Day Weather Forecast

Advertisements
Track Severe Weather on mobile